Time;durP1;ratioP1;P1;durP2;ratioP2;P2;SDS_P1;SDS_P2;PMS_P1;PMS_P2;Temp;Humidity;BMP_temperature;BMP_pressure;BME280_temperature;BME280_humidity;BME280_pressure;Samples;Min_cycle;Max_cycle;Signal;HPM_P1;HPM_P2
2022/05/11 00:00:44;;;;;;;3.70;3.40;;;15.00;99.90;;;;;;5073984;28;20445;-44
2022/05/11 00:03:11;;;;;;;4.53;3.60;;;15.00;99.90;;;;;;5073531;28;20452;-44
2022/05/11 00:05:38;;;;;;;4.03;3.53;;;15.00;99.90;;;;;;5073537;28;20815;-43
2022/05/11 00:08:06;;;;;;;3.70;3.40;;;14.90;99.90;;;;;;5073401;28;20489;-51
2022/05/11 00:10:33;;;;;;;4.00;3.33;;;15.00;99.90;;;;;;5073609;28;20467;-44
2022/05/11 00:13:00;;;;;;;5.90;3.20;;;15.00;99.90;;;;;;5073307;28;20519;-43
2022/05/11 00:15:29;;;;;;;3.23;2.97;;;15.00;99.90;;;;;;5073573;28;20467;-47
2022/05/11 00:17:57;;;;;;;3.60;3.30;;;15.10;99.90;;;;;;5073501;28;20977;-44
2022/05/11 00:20:24;;;;;;;4.00;3.30;;;14.80;99.90;;;;;;5073079;28;20445;-44
2022/05/11 00:22:54;;;;;;;4.10;3.70;;;14.80;99.90;;;;;;5073170;28;20514;-43
2022/05/11 00:25:24;;;;;;;3.53;3.20;;;14.80;99.90;;;;;;5073591;28;20454;-44
2022/05/11 00:27:52;;;;;;;3.90;3.57;;;14.80;99.90;;;;;;5073361;28;20812;-43
2022/05/11 00:30:19;;;;;;;6.90;3.03;;;14.70;99.90;;;;;;5072756;28;20569;-44
2022/05/11 00:32:47;;;;;;;3.73;3.43;;;14.80;99.90;;;;;;5072940;28;21099;-44
2022/05/11 00:35:15;;;;;;;3.93;3.53;;;14.70;99.90;;;;;;5073317;28;20498;-45
2022/05/11 00:37:41;;;;;;;4.83;3.47;;;14.70;99.90;;;;;;5072984;28;20491;-44
2022/05/11 00:40:09;;;;;;;3.60;3.30;;;14.50;99.90;;;;;;5073074;28;20441;-46
2022/05/11 00:42:36;;;;;;;3.50;3.10;;;14.60;99.90;;;;;;5073032;28;20517;-43
2022/05/11 00:45:04;;;;;;;4.00;3.60;;;14.60;99.90;;;;;;5072937;28;20531;-43
2022/05/11 00:47:36;;;;;;;3.90;3.10;;;14.60;99.90;;;;;;5072813;28;20479;-43
2022/05/11 00:50:08;;;;;;;3.77;3.47;;;14.60;99.90;;;;;;5072751;28;20479;-46
2022/05/11 00:52:41;;;;;;;6.40;3.30;;;14.50;99.90;;;;;;5073817;28;20468;-44
2022/05/11 00:55:13;;;;;;;4.40;3.47;;;14.50;99.90;;;;;;5072997;28;20472;-43
2022/05/11 00:57:46;;;;;;;4.83;3.03;;;14.60;99.90;;;;;;5072783;28;20449;-45
2022/05/11 01:00:14;;;;;;;4.80;3.63;;;14.60;99.90;;;;;;5072615;28;20480;-44
2022/05/11 01:02:43;;;;;;;3.90;3.03;;;14.50;99.90;;;;;;5072630;28;20495;-44
2022/05/11 01:05:12;;;;;;;5.13;3.30;;;14.50;99.90;;;;;;5072499;28;20532;-45
2022/05/11 01:07:40;;;;;;;3.67;3.03;;;14.40;99.90;;;;;;5072550;28;20474;-44
2022/05/11 01:10:09;;;;;;;3.90;2.83;;;14.40;99.90;;;;;;5072213;28;20483;-45
2022/05/11 01:12:41;;;;;;;5.27;4.17;;;14.50;99.90;;;;;;5072346;28;20484;-44
2022/05/11 01:15:12;;;;;;;3.40;3.07;;;14.40;99.90;;;;;;5072487;28;20440;-44
2022/05/11 01:17:40;;;;;;;4.37;3.97;;;14.40;99.90;;;;;;5072367;28;20440;-47
2022/05/11 01:20:10;;;;;;;14.57;4.43;;;14.40;99.90;;;;;;5072234;28;20977;-45
2022/05/11 01:22:45;;;;;;;3.10;2.80;;;14.50;99.90;;;;;;5072285;28;20526;-44
2022/05/11 01:25:15;;;;;;;4.00;3.47;;;14.40;99.90;;;;;;5072464;28;20483;-44
2022/05/11 01:27:44;;;;;;;4.00;3.63;;;14.40;99.90;;;;;;5072055;28;20962;-45
2022/05/11 01:30:14;;;;;;;7.97;3.87;;;14.40;99.90;;;;;;5071598;28;20444;-44
2022/05/11 01:32:43;;;;;;;4.20;3.80;;;14.30;99.90;;;;;;5071425;28;20522;-44
2022/05/11 01:35:23;;;;;;;6.63;3.67;;;14.20;99.90;;;;;;5071965;28;20476;-44
2022/05/11 01:38:02;;;;;;;5.80;3.20;;;14.10;99.90;;;;;;5072012;28;20440;-44
2022/05/11 01:40:30;;;;;;;4.70;3.07;;;14.20;99.90;;;;;;5071766;28;20436;-44
2022/05/11 01:42:57;;;;;;;3.17;2.87;;;14.10;99.90;;;;;;5072043;28;20513;-44
2022/05/11 01:45:24;;;;;;;4.20;2.90;;;14.10;99.90;;;;;;5071595;28;20927;-44
2022/05/11 01:47:55;;;;;;;3.63;3.33;;;14.10;99.90;;;;;;5071763;28;20445;-43
2022/05/11 01:50:22;;;;;;;3.83;3.33;;;14.10;99.90;;;;;;5071558;28;20444;-44
2022/05/11 01:52:50;;;;;;;5.23;3.30;;;14.20;99.90;;;;;;5071250;28;20507;-43
2022/05/11 01:55:17;;;;;;;3.27;2.97;;;14.10;99.90;;;;;;5071710;28;20463;-43
2022/05/11 01:57:45;;;;;;;3.97;3.07;;;13.90;99.90;;;;;;5071578;28;20868;-43
2022/05/11 02:00:13;;;;;;;3.70;3.37;;;13.90;99.90;;;;;;5071443;28;20501;-44
2022/05/11 02:02:40;;;;;;;3.60;3.30;;;14.00;99.90;;;;;;5071585;28;20468;-44
2022/05/11 02:07:52;;;;;;;4.03;3.10;;;13.90;99.90;;;;;;5071620;28;20423;-44
2022/05/11 02:10:20;;;;;;;5.30;3.70;;;13.50;99.90;;;;;;5071218;28;20440;-43
2022/05/11 02:12:49;;;;;;;3.47;2.93;;;13.50;99.90;;;;;;5071009;28;21064;-44
2022/05/11 02:15:18;;;;;;;3.80;3.50;;;13.50;99.90;;;;;;5071668;28;20440;-46
2022/05/11 02:17:46;;;;;;;4.17;3.77;;;13.50;99.90;;;;;;5071334;28;20444;-44
2022/05/11 02:20:14;;;;;;;4.57;3.43;;;13.60;99.90;;;;;;5071566;28;20925;-46
2022/05/11 02:22:42;;;;;;;3.80;2.97;;;13.60;99.90;;;;;;5070676;28;20543;-43
2022/05/11 02:25:10;;;;;;;6.37;3.20;;;13.50;99.90;;;;;;5071584;28;20490;-46
2022/05/11 02:27:37;;;;;;;4.50;3.20;;;13.60;99.90;;;;;;5071297;28;20455;-45
2022/05/11 02:30:08;;;;;;;3.30;3.00;;;13.70;99.90;;;;;;5070546;28;20804;-44
2022/05/11 02:32:35;;;;;;;3.30;3.00;;;13.70;99.90;;;;;;5070896;28;20472;-45
2022/05/11 02:35:15;;;;;;;3.00;2.80;;;13.70;99.90;;;;;;5070958;28;20898;-44
2022/05/11 02:37:45;;;;;;;3.60;2.70;;;13.70;99.90;;;;;;5071040;28;20444;-44
2022/05/11 02:40:14;;;;;;;3.80;2.70;;;13.80;99.90;;;;;;5071102;28;20476;-43
2022/05/11 02:42:41;;;;;;;4.30;2.90;;;13.80;99.90;;;;;;5070964;28;20464;-43
2022/05/11 02:45:10;;;;;;;2.90;2.57;;;13.80;99.90;;;;;;5073733;28;20509;-44
2022/05/11 02:47:38;;;;;;;3.33;2.70;;;13.80;99.90;;;;;;5075044;28;20513;-44
2022/05/11 02:50:06;;;;;;;4.53;3.33;;;13.70;99.90;;;;;;5075193;28;20440;-44
2022/05/11 02:52:34;;;;;;;3.70;3.40;;;13.70;99.90;;;;;;5075107;28;20472;-44
2022/05/11 02:55:01;;;;;;;3.37;3.03;;;13.70;99.90;;;;;;5075119;28;20480;-43
2022/05/11 02:57:28;;;;;;;4.47;3.93;;;13.70;99.90;;;;;;5075070;28;20471;-44
2022/05/11 02:59:55;;;;;;;4.17;3.20;;;13.70;99.90;;;;;;5074724;28;20814;-43
2022/05/11 03:02:23;;;;;;;4.80;2.80;;;13.70;99.90;;;;;;5074616;28;20456;-44
2022/05/11 03:04:51;;;;;;;4.27;3.20;;;13.70;99.90;;;;;;5074853;28;20487;-44
2022/05/11 03:07:18;;;;;;;5.57;3.10;;;13.60;99.90;;;;;;5075138;28;20448;-47
2022/05/11 03:09:45;;;;;;;3.70;3.40;;;13.70;99.90;;;;;;5074759;28;20472;-44
2022/05/11 03:12:13;;;;;;;3.17;2.70;;;13.60;99.90;;;;;;5074596;28;20468;-45
2022/05/11 03:14:41;;;;;;;4.00;3.03;;;13.70;99.90;;;;;;5074568;28;20511;-46
2022/05/11 03:17:08;;;;;;;2.90;2.50;;;13.70;99.90;;;;;;5074953;28;20510;-43
2022/05/11 03:19:37;;;;;;;3.43;3.13;;;13.60;99.90;;;;;;5074706;28;20450;-44
2022/05/11 03:22:05;;;;;;;3.83;3.00;;;13.50;99.90;;;;;;5074476;28;20464;-43
2022/05/11 03:24:31;;;;;;;3.30;2.30;;;13.40;99.90;;;;;;5074420;28;20476;-43
2022/05/11 03:26:58;;;;;;;3.30;2.80;;;13.40;99.90;;;;;;5074178;28;20489;-43
2022/05/11 03:29:25;;;;;;;3.20;2.77;;;13.40;99.90;;;;;;5073930;28;20468;-45
2022/05/11 03:34:38;;;;;;;3.20;2.90;;;13.40;99.90;;;;;;5074468;28;20471;-44
2022/05/11 03:37:06;;;;;;;6.57;5.87;;;13.30;99.90;;;;;;5074061;28;20476;-43
2022/05/11 03:39:34;;;;;;;3.90;3.00;;;13.30;99.90;;;;;;5074135;28;20481;-46
2022/05/11 03:42:01;;;;;;;3.37;2.63;;;13.30;99.90;;;;;;5074259;28;20563;-44
2022/05/11 03:44:29;;;;;;;3.20;2.70;;;13.40;99.90;;;;;;5074209;28;20475;-43
2022/05/11 03:46:56;;;;;;;3.20;2.70;;;13.40;99.90;;;;;;5073988;28;20539;-43
2022/05/11 03:49:23;;;;;;;3.73;3.43;;;13.30;99.90;;;;;;5073801;28;20864;-43
2022/05/11 03:51:52;;;;;;;3.90;3.20;;;13.20;99.90;;;;;;5073688;28;20468;-43
2022/05/11 03:54:19;;;;;;;2.87;2.60;;;13.10;99.90;;;;;;5074182;28;20476;-46
2022/05/11 03:56:46;;;;;;;4.50;3.27;;;13.10;99.90;;;;;;5073173;28;20487;-44
2022/05/11 03:59:13;;;;;;;4.17;3.10;;;13.10;99.90;;;;;;5073685;28;20476;-46
2022/05/11 04:01:40;;;;;;;3.43;2.83;;;13.00;99.90;;;;;;5073684;28;20899;-44
2022/05/11 04:04:07;;;;;;;3.13;2.73;;;13.00;99.90;;;;;;5073535;28;20562;-45
2022/05/11 04:06:34;;;;;;;3.03;2.70;;;13.10;99.90;;;;;;5073837;28;20440;-44
2022/05/11 04:09:03;;;;;;;16.23;4.93;;;13.10;99.90;;;;;;5073252;28;20472;-45
2022/05/11 04:11:31;;;;;;;3.17;2.87;;;13.10;99.90;;;;;;5073679;28;20525;-44
2022/05/11 04:13:58;;;;;;;3.37;3.07;;;13.10;99.90;;;;;;5073687;28;20472;-43
2022/05/11 04:16:26;;;;;;;3.53;3.23;;;13.10;99.90;;;;;;5073614;28;20493;-43
2022/05/11 04:18:53;;;;;;;2.43;2.23;;;13.00;99.90;;;;;;5073284;28;20444;-44
2022/05/11 04:21:20;;;;;;;4.37;3.20;;;13.00;99.90;;;;;;5073736;28;20586;-43
2022/05/11 04:23:47;;;;;;;2.87;2.67;;;12.90;99.90;;;;;;5073636;28;20445;-44
2022/05/11 04:26:15;;;;;;;6.47;3.13;;;13.00;99.90;;;;;;5073230;28;20531;-43
2022/05/11 04:28:44;;;;;;;3.40;3.10;;;12.90;99.90;;;;;;5072753;28;20449;-44
2022/05/11 04:31:13;;;;;;;3.63;3.17;;;12.90;99.90;;;;;;5073307;28;20463;-44
2022/05/11 04:33:40;;;;;;;3.57;3.27;;;13.00;99.90;;;;;;5073441;28;20498;-45
2022/05/11 04:36:08;;;;;;;3.23;2.80;;;13.00;99.90;;;;;;5073293;28;20493;-46
2022/05/11 04:38:35;;;;;;;4.83;3.40;;;13.00;99.90;;;;;;5073055;28;20471;-44
2022/05/11 04:41:03;;;;;;;4.60;3.20;;;13.10;99.90;;;;;;5072957;28;20468;-45
2022/05/11 04:43:31;;;;;;;4.37;3.27;;;13.00;99.90;;;;;;5073026;28;20950;-45
2022/05/11 04:45:58;;;;;;;3.93;3.27;;;13.10;99.90;;;;;;5073220;28;20441;-44
2022/05/11 04:48:26;;;;;;;3.40;2.93;;;13.20;99.90;;;;;;5072586;28;20849;-43
2022/05/11 04:50:53;;;;;;;3.20;2.60;;;13.20;99.90;;;;;;5072706;28;20437;-44
2022/05/11 04:53:20;;;;;;;3.73;3.20;;;13.20;99.90;;;;;;5072867;28;20951;-44
2022/05/11 04:55:48;;;;;;;4.80;3.10;;;13.20;99.90;;;;;;5072665;28;20553;-45
2022/05/11 04:58:15;;;;;;;3.13;2.77;;;13.20;99.90;;;;;;5072681;28;20441;-45
2022/05/11 05:00:44;;;;;;;3.30;2.77;;;13.30;99.90;;;;;;5072838;28;20498;-44
2022/05/11 05:03:12;;;;;;;3.30;3.00;;;13.40;99.90;;;;;;5072666;28;20495;-44
2022/05/11 05:05:40;;;;;;;3.87;3.13;;;13.50;99.90;;;;;;5072359;28;21015;-46
2022/05/11 05:08:08;;;;;;;6.27;4.73;;;13.60;99.90;;;;;;5071373;28;20445;-44
2022/05/11 05:10:36;;;;;;;4.10;3.37;;;13.60;99.90;;;;;;5072861;28;20521;-44
2022/05/11 05:13:04;;;;;;;3.37;3.07;;;13.70;99.90;;;;;;5072373;28;21004;-44
2022/05/11 05:15:32;;;;;;;5.13;3.87;;;13.70;99.90;;;;;;5072309;28;20567;-44
2022/05/11 05:18:01;;;;;;;3.90;3.00;;;13.80;99.90;;;;;;5072185;28;20470;-45
2022/05/11 05:20:29;;;;;;;3.80;3.23;;;13.80;99.90;;;;;;5072144;28;20858;-43
2022/05/11 05:22:56;;;;;;;4.63;3.47;;;13.90;99.90;;;;;;5072069;28;20923;-44
2022/05/11 05:25:23;;;;;;;4.67;3.40;;;13.90;99.90;;;;;;5072042;28;20922;-44
2022/05/11 05:27:51;;;;;;;5.00;2.80;;;13.80;99.90;;;;;;5072122;28;20480;-44
2022/05/11 05:33:04;;;;;;;4.60;3.70;;;13.90;99.90;;;;;;5072117;28;20447;-44
2022/05/11 05:35:31;;;;;;;4.13;3.73;;;14.00;99.90;;;;;;5072169;28;20507;-45
2022/05/11 05:37:58;;;;;;;7.87;4.63;;;14.00;99.90;;;;;;5072042;28;20440;-43
2022/05/11 05:40:25;;;;;;;8.90;5.53;;;14.10;99.90;;;;;;5071753;28;20448;-46
2022/05/11 05:42:52;;;;;;;7.07;6.47;;;14.20;99.90;;;;;;5071945;28;20496;-44
2022/05/11 05:45:19;;;;;;;6.10;5.47;;;14.20;99.90;;;;;;5071839;28;20441;-45
2022/05/11 05:47:46;;;;;;;6.30;4.83;;;14.10;99.90;;;;;;5071815;28;20931;-45
2022/05/11 05:50:15;;;;;;;6.47;5.10;;;14.00;99.90;;;;;;5071371;28;20448;-44
2022/05/11 05:52:44;;;;;;;6.70;5.07;;;13.90;99.90;;;;;;5071681;28;20476;-46
2022/05/11 05:55:12;;;;;;;7.07;5.43;;;13.80;99.90;;;;;;5071376;28;20476;-44
2022/05/11 05:57:39;;;;;;;5.83;5.00;;;13.80;99.90;;;;;;5071630;28;20817;-45
2022/05/11 06:00:08;;;;;;;6.50;4.87;;;13.90;99.90;;;;;;5071199;28;20495;-44
2022/05/11 06:02:34;;;;;;;5.50;4.43;;;14.00;99.90;;;;;;5071373;28;20468;-47
2022/05/11 06:05:01;;;;;;;4.87;4.00;;;14.10;99.90;;;;;;5071913;28;20436;-44
2022/05/11 06:07:30;;;;;;;4.90;3.70;;;14.30;99.90;;;;;;5071774;28;20483;-45
2022/05/11 06:09:57;;;;;;;6.50;4.20;;;14.40;99.90;;;;;;5071158;28;20456;-44
2022/05/11 06:12:24;;;;;;;6.30;4.93;;;14.50;99.90;;;;;;5071210;28;20500;-44
2022/05/11 06:14:51;;;;;;;13.48;5.50;;;14.50;99.90;;;;;;5070230;28;20514;-44
2022/05/11 06:17:23;;;;;;;9.13;5.63;;;14.30;99.90;;;;;;5071411;28;20591;-44
2022/05/11 06:19:50;;;;;;;9.60;5.93;;;14.30;99.90;;;;;;5070643;28;20531;-44
2022/05/11 06:22:18;;;;;;;9.70;5.00;;;14.20;99.90;;;;;;5071483;28;20464;-44
2022/05/11 06:24:46;;;;;;;14.43;5.97;;;14.40;99.90;;;;;;5071668;28;20494;-44
2022/05/11 06:27:16;;;;;;;8.57;6.30;;;14.60;99.90;;;;;;5071122;28;20441;-44
2022/05/11 06:29:43;;;;;;;17.23;6.07;;;14.80;99.90;;;;;;5070853;28;20472;-44
2022/05/11 06:32:10;;;;;;;8.57;5.40;;;15.00;99.90;;;;;;5071177;28;20469;-44
2022/05/11 06:34:37;;;;;;;10.03;6.03;;;15.00;99.90;;;;;;5071284;28;21037;-44
2022/05/11 06:37:05;;;;;;;7.27;5.03;;;15.10;99.90;;;;;;5071108;28;20471;-44
2022/05/11 06:39:32;;;;;;;9.13;4.80;;;15.20;99.90;;;;;;5070693;28;20483;-44
2022/05/11 06:42:02;;;;;;;39.53;8.93;;;15.30;99.90;;;;;;5071067;28;20521;-44
2022/05/11 06:44:29;;;;;;;22.40;5.57;;;15.50;99.90;;;;;;5071359;28;20954;-45
2022/05/11 06:46:56;;;;;;;21.37;5.90;;;15.70;99.90;;;;;;5070776;28;20468;-45
2022/05/11 06:49:23;;;;;;;8.73;5.17;;;15.80;99.90;;;;;;5070795;28;21011;-43
2022/05/11 06:51:50;;;;;;;4.80;4.40;;;16.00;99.90;;;;;;5071851;28;20521;-45
2022/05/11 06:59:47;;;;;;;20.77;6.40;;;16.30;99.90;;;;;;5070673;28;20441;-45
2022/05/11 07:02:13;;;;;;;16.40;6.20;;;16.50;99.90;;;;;;5070311;28;20543;-44
2022/05/11 07:04:40;;;;;;;24.57;8.17;;;16.60;99.90;;;;;;5070527;28;20494;-45
2022/05/11 07:07:08;;;;;;;23.43;5.97;;;16.70;99.90;;;;;;5070915;28;20448;-44
2022/05/11 07:09:36;;;;;;;23.90;6.77;;;16.80;99.90;;;;;;5070609;28;20476;-44
2022/05/11 07:12:31;;;;;;;18.63;5.40;;;16.80;99.90;;;;;;5070649;28;20464;-46
2022/05/11 07:14:59;;;;;;;4.30;3.90;;;16.90;99.90;;;;;;5070824;28;20476;-44
2022/05/11 07:17:30;;;;;;;8.27;3.70;;;17.00;99.90;;;;;;5070802;28;20476;-44
2022/05/11 07:19:58;;;;;;;11.17;4.70;;;16.90;99.90;;;;;;5070624;28;20440;-45
2022/05/11 07:22:26;;;;;;;5.03;3.90;;;16.90;99.90;;;;;;5070499;28;20459;-44
2022/05/11 07:24:52;;;;;;;12.40;7.00;;;16.90;99.90;;;;;;5070485;28;20495;-44
2022/05/11 07:27:22;;;;;;;6.20;5.33;;;16.90;99.90;;;;;;5070850;28;20475;-44
2022/05/11 07:29:50;;;;;;;12.70;4.93;;;16.90;99.90;;;;;;5070463;28;20440;-44
2022/05/11 07:32:17;;;;;;;5.10;3.83;;;17.00;99.90;;;;;;5073218;28;20521;-45
2022/05/11 07:34:44;;;;;;;5.87;4.40;;;17.00;99.90;;;;;;5074339;28;20521;-45
2022/05/11 07:37:10;;;;;;;8.67;4.00;;;17.00;99.90;;;;;;5074355;28;20472;-45
2022/05/11 07:39:38;;;;;;;10.97;4.20;;;17.10;99.90;;;;;;5074020;28;20497;-45
2022/05/11 07:42:05;;;;;;;8.17;3.50;;;17.20;99.90;;;;;;5074063;28;20900;-46
2022/05/11 07:44:34;;;;;;;18.27;5.10;;;17.50;99.90;;;;;;5073897;28;20517;-44
2022/05/11 07:47:01;;;;;;;7.30;4.73;;;17.70;99.90;;;;;;5073933;28;20487;-44
2022/05/11 07:49:28;;;;;;;6.80;3.90;;;17.90;99.90;;;;;;5073914;28;20436;-45
2022/05/11 07:51:55;;;;;;;5.07;3.30;;;18.10;99.90;;;;;;5073833;28;20990;-45
2022/05/11 07:54:22;;;;;;;10.47;5.13;;;18.30;99.90;;;;;;5074080;28;20478;-44
2022/05/11 08:02:25;;;;;;;7.43;4.60;;;18.50;99.90;;;;;;5073863;28;20447;-45
2022/05/11 08:04:52;;;;;;;7.17;3.23;;;18.60;99.90;;;;;;5073797;28;20443;-46
2022/05/11 08:07:19;;;;;;;39.17;7.53;;;18.60;99.90;;;;;;5073818;28;20476;-44
2022/05/11 08:09:46;;;;;;;13.93;4.17;;;18.70;99.90;;;;;;5073547;28;20463;-46
2022/05/11 08:12:13;;;;;;;14.90;4.20;;;18.80;99.90;;;;;;5073820;28;20461;-46
2022/05/11 08:14:42;;;;;;;24.27;5.50;;;18.90;99.90;;;;;;5073420;28;20502;-44
2022/05/11 08:17:08;;;;;;;8.37;4.50;;;18.90;99.90;;;;;;5073512;28;20449;-44
2022/05/11 08:19:37;;;;;;;9.03;3.97;;;19.00;99.90;;;;;;5073356;28;20436;-45
2022/05/11 08:22:04;;;;;;;4.70;2.80;;;19.10;99.90;;;;;;5073536;28;20554;-45
2022/05/11 08:24:32;;;;;;;21.53;6.20;;;19.20;99.90;;;;;;5073506;28;20790;-45
2022/05/11 08:26:59;;;;;;;2.80;2.50;;;19.30;99.90;;;;;;5072965;28;20535;-46
2022/05/11 08:34:57;;;;;;;6.13;3.50;;;19.70;99.90;;;;;;5072929;28;20466;-45
2022/05/11 08:37:23;;;;;;;9.87;3.73;;;19.90;99.90;;;;;;5073455;28;20475;-45
2022/05/11 08:39:50;;;;;;;6.93;3.03;;;20.00;99.10;;;;;;5072835;28;20468;-46
2022/05/11 08:42:18;;;;;;;22.20;5.20;;;20.10;98.90;;;;;;5072753;28;21041;-45
2022/05/11 08:44:48;;;;;;;18.03;6.73;;;20.20;99.30;;;;;;5072989;28;20513;-45
2022/05/11 08:47:33;;;;;;;2.63;2.43;;;20.20;99.40;;;;;;5072873;28;20441;-45
2022/05/11 08:50:09;;;;;;;29.40;5.87;;;20.20;98.80;;;;;;5072827;28;20444;-45
2022/05/11 08:52:43;;;;;;;18.60;4.93;;;20.30;99.70;;;;;;5072622;28;20508;-45
2022/05/11 08:55:13;;;;;;;2.73;2.30;;;20.30;99.50;;;;;;5072918;28;20498;-45
2022/05/11 08:57:41;;;;;;;20.90;7.50;;;20.40;98.90;;;;;;5072978;28;20440;-45
2022/05/11 09:00:14;;;;;;;3.80;2.67;;;20.60;99.90;;;;;;5072628;28;20480;-45
2022/05/11 09:02:49;;;;;;;3.10;2.70;;;20.60;98.20;;;;;;5072595;28;20492;-45
2022/05/11 09:05:19;;;;;;;3.67;2.57;;;20.40;98.20;;;;;;5072545;28;20432;-45
2022/05/11 09:07:49;;;;;;;4.37;3.20;;;20.40;98.40;;;;;;5072455;28;20444;-45
2022/05/11 09:10:23;;;;;;;12.40;4.43;;;20.40;98.00;;;;;;5072397;28;20531;-45
2022/05/11 09:12:55;;;;;;;8.97;7.40;;;20.30;97.00;;;;;;5072566;28;20488;-45
2022/05/11 09:15:22;;;;;;;11.10;4.30;;;20.30;94.90;;;;;;5072226;28;20888;-45
2022/05/11 09:18:04;;;;;;;3.00;2.27;;;20.50;94.60;;;;;;5072285;28;21008;-46
2022/05/11 09:20:36;;;;;;;4.93;3.50;;;20.50;95.10;;;;;;5072120;28;20973;-45
2022/05/11 09:23:05;;;;;;;3.50;2.50;;;20.50;95.40;;;;;;5071298;28;20831;-47
2022/05/11 09:25:36;;;;;;;16.40;5.30;;;20.50;94.80;;;;;;5070860;28;20476;-44
2022/05/11 09:28:20;;;;;;;18.23;5.90;;;20.80;97.70;;;;;;5071552;28;20449;-47
2022/05/11 09:30:59;;;;;;;5.67;2.77;;;21.00;94.90;;;;;;5071726;28;20465;-46
2022/05/11 09:33:30;;;;;;;8.00;3.50;;;21.10;97.00;;;;;;5091695;28;20440;-45
2022/05/11 09:35:57;;;;;;;16.33;4.90;;;21.10;98.90;;;;;;5092232;28;20479;-45
2022/05/11 09:38:36;;;;;;;9.60;3.60;;;21.20;97.50;;;;;;5091809;28;20483;-45
2022/05/11 09:41:10;;;;;;;11.70;3.80;;;21.40;97.60;;;;;;5091971;28;20471;-45
2022/05/11 09:43:39;;;;;;;5.33;2.97;;;21.30;96.30;;;;;;5091508;28;20479;-45
2022/05/11 09:46:21;;;;;;;8.93;3.60;;;21.20;96.00;;;;;;5091856;28;20861;-44
2022/05/11 09:49:05;;;;;;;3.70;3.10;;;21.30;96.60;;;;;;5092229;28;20756;-45
2022/05/11 09:51:40;;;;;;;10.70;4.77;;;21.20;94.90;;;;;;5091968;28;20475;-45
2022/05/11 09:54:28;;;;;;;10.87;3.90;;;21.20;96.10;;;;;;5090798;28;20447;-46
2022/05/11 09:57:01;;;;;;;7.47;3.63;;;21.50;96.70;;;;;;5091774;28;20483;-45
2022/05/11 09:59:30;;;;;;;7.80;3.30;;;21.70;96.40;;;;;;5091782;28;20439;-45
2022/05/11 10:02:17;;;;;;;10.40;4.60;;;21.70;95.00;;;;;;5090217;28;20538;-45
2022/05/11 10:04:51;;;;;;;3.80;3.13;;;21.80;96.70;;;;;;5090003;28;20885;-45
2022/05/11 10:07:19;;;;;;;5.10;3.40;;;21.70;95.40;;;;;;5087098;28;20492;-44
2022/05/11 10:09:59;;;;;;;3.33;3.03;;;21.70;96.20;;;;;;5051194;28;20448;-45
2022/05/11 10:12:30;;;;;;;8.50;4.30;;;21.70;99.90;;;;;;5050993;28;20500;-46
2022/05/11 10:23:30;;;;;;;3.40;3.10;;;22.40;93.50;;;;;;5051337;28;20526;-46
2022/05/11 10:26:02;;;;;;;3.60;2.90;;;22.30;92.50;;;;;;5050902;28;20486;-48
2022/05/11 10:28:39;;;;;;;2.50;2.30;;;22.30;94.30;;;;;;5050755;28;20437;-46
2022/05/11 10:31:16;;;;;;;8.03;3.10;;;22.30;98.10;;;;;;5050484;28;20586;-46
2022/05/11 10:33:58;;;;;;;4.13;3.20;;;22.30;99.30;;;;;;5051056;28;20490;-46
2022/05/11 10:36:40;;;;;;;5.77;3.10;;;22.40;98.60;;;;;;5050814;28;20473;-46
2022/05/11 10:39:23;;;;;;;15.50;3.80;;;22.40;98.40;;;;;;5050499;28;20491;-45
2022/05/11 10:41:54;;;;;;;3.67;3.20;;;22.60;93.50;;;;;;5050413;28;20513;-48
2022/05/11 10:44:38;;;;;;;3.67;2.80;;;22.60;93.10;;;;;;5049681;28;20441;-48
2022/05/11 10:47:17;;;;;;;6.13;3.07;;;22.60;93.00;;;;;;5051126;28;20445;-45
2022/05/11 10:49:55;;;;;;;5.77;2.23;;;22.80;95.20;;;;;;5050143;28;20445;-46
2022/05/11 10:52:59;;;;;;;8.47;4.63;;;22.70;94.50;;;;;;5050363;28;20705;-47
2022/05/11 10:55:32;;;;;;;5.40;3.37;;;22.80;93.70;;;;;;5051031;28;20437;-45
2022/05/11 10:58:14;;;;;;;4.70;3.40;;;22.80;93.40;;;;;;5050790;28;20533;-52
2022/05/11 11:00:45;;;;;;;3.70;3.03;;;22.80;94.50;;;;;;5051043;28;20506;-48
2022/05/11 11:03:47;;;;;;;7.80;3.50;;;22.70;94.00;;;;;;5050858;28;20522;-45
2022/05/11 11:09:43;;;;;;;7.07;3.70;;;22.80;92.40;;;;;;5054571;28;20424;-45
2022/05/11 11:12:28;;;;;;;3.20;2.90;;;22.90;94.40;;;;;;5054538;28;20460;-45
2022/05/11 11:14:58;;;;;;;3.00;2.50;;;22.90;91.70;;;;;;5054520;28;20448;-45
2022/05/11 11:17:28;;;;;;;3.10;2.30;;;22.90;91.90;;;;;;5054604;28;20511;-45
2022/05/11 11:19:59;;;;;;;3.87;3.00;;;23.00;94.40;;;;;;5054264;28;20502;-45
2022/05/11 11:22:26;;;;;;;3.10;2.80;;;23.10;93.10;;;;;;5054671;28;20465;-44
2022/05/11 11:25:23;;;;;;;3.77;2.97;;;23.10;93.80;;;;;;5054521;28;20833;-45
2022/05/11 11:28:08;;;;;;;3.70;2.83;;;23.20;94.30;;;;;;5054209;28;20444;-48
2022/05/11 11:30:36;;;;;;;6.47;3.60;;;23.30;92.40;;;;;;5054290;28;20471;-45
2022/05/11 11:33:23;;;;;;;5.10;3.00;;;23.30;92.60;;;;;;5054130;28;20526;-44
2022/05/11 11:35:56;;;;;;;2.67;2.40;;;23.40;94.90;;;;;;5053982;28;20441;-46
2022/05/11 11:38:29;;;;;;;3.60;2.70;;;23.40;92.60;;;;;;5054334;28;20437;-46
2022/05/11 11:41:18;;;;;;;2.50;2.30;;;23.40;92.90;;;;;;5054015;28;20448;-46
2022/05/11 11:43:54;;;;;;;3.53;2.60;;;23.40;91.50;;;;;;5054494;28;20469;-44
2022/05/11 11:46:33;;;;;;;3.63;2.93;;;23.40;93.70;;;;;;5054272;28;20440;-45
2022/05/11 11:49:11;;;;;;;3.17;2.87;;;23.40;93.80;;;;;;5053764;28;20468;-45
2022/05/11 11:51:58;;;;;;;5.40;3.10;;;23.50;92.80;;;;;;5053840;28;20496;-48
2022/05/11 11:54:31;;;;;;;3.33;2.33;;;23.50;90.70;;;;;;5053565;28;20445;-47
2022/05/11 11:57:00;;;;;;;6.80;2.77;;;23.60;89.70;;;;;;5053837;28;20477;-45
2022/05/11 11:59:42;;;;;;;3.60;2.40;;;23.60;89.40;;;;;;5053656;28;20477;-45
2022/05/11 12:02:23;;;;;;;3.87;2.57;;;23.60;90.90;;;;;;5053206;28;20835;-50
2022/05/11 12:05:06;;;;;;;2.70;2.50;;;23.70;86.50;;;;;;5052303;28;20446;-45
2022/05/11 12:16:06;;;;;;;16.23;3.70;;;23.80;78.20;;;;;;5053095;28;20981;-45
2022/05/11 12:18:35;;;;;;;2.93;2.50;;;23.90;78.40;;;;;;5052660;28;20485;-45
2022/05/11 12:21:04;;;;;;;3.80;1.83;;;23.90;78.00;;;;;;5053174;28;20441;-49
2022/05/11 12:23:36;;;;;;;2.83;2.30;;;23.90;78.90;;;;;;5053314;28;20496;-45
2022/05/11 12:26:07;;;;;;;3.07;2.30;;;23.90;78.60;;;;;;5053538;28;20449;-46
2022/05/11 12:28:38;;;;;;;5.90;2.43;;;24.00;81.70;;;;;;5052691;28;20986;-47
2022/05/11 12:31:06;;;;;;;3.30;2.03;;;24.10;84.90;;;;;;5053298;28;20449;-45
2022/05/11 12:33:36;;;;;;;2.90;2.23;;;24.10;78.60;;;;;;5051603;28;20481;-46
2022/05/11 12:36:04;;;;;;;5.07;2.57;;;24.30;85.10;;;;;;5052044;28;20437;-49
2022/05/11 12:38:33;;;;;;;3.57;2.07;;;24.50;89.10;;;;;;5052777;28;20511;-45
2022/05/11 12:41:08;;;;;;;2.20;1.60;;;24.60;72.20;;;;;;5056186;28;20472;-45
2022/05/11 12:43:38;;;;;;;2.70;1.87;;;24.90;63.90;;;;;;5061341;28;20445;-45
2022/05/11 12:46:07;;;;;;;1.87;1.60;;;25.00;68.00;;;;;;5073162;28;20448;-48
2022/05/11 12:48:36;;;;;;;3.97;2.03;;;25.00;67.80;;;;;;5072469;28;20831;-46
2022/05/11 12:51:06;;;;;;;2.20;2.00;;;25.00;72.90;;;;;;5072689;28;20456;-45
2022/05/11 12:53:36;;;;;;;4.40;2.30;;;24.90;68.40;;;;;;5110985;22;20483;-49
2022/05/11 12:56:14;;;;;;;3.13;2.30;;;25.00;77.60;;;;;;5091938;28;20522;-49
2022/05/11 12:58:49;;;;;;;4.70;2.50;;;25.00;70.30;;;;;;5092576;28;20473;-47
2022/05/11 13:01:18;;;;;;;7.90;2.80;;;25.00;68.90;;;;;;5093023;28;20481;-46
2022/05/11 13:03:45;;;;;;;19.93;5.47;;;25.00;73.20;;;;;;5092989;28;20468;-47
2022/05/11 13:06:27;;;;;;;10.03;3.30;;;25.00;76.90;;;;;;5092902;28;20471;-46
2022/05/11 13:08:58;;;;;;;11.83;3.43;;;25.30;77.30;;;;;;5092643;28;20475;-46
2022/05/11 13:11:28;;;;;;;2.23;1.90;;;25.40;71.60;;;;;;5092628;28;20876;-46
2022/05/11 13:13:59;;;;;;;3.30;1.80;;;25.30;63.20;;;;;;5092692;28;20500;-47
2022/05/11 13:16:31;;;;;;;20.97;10.73;;;25.30;68.10;;;;;;5092308;28;20467;-46
2022/05/11 13:19:07;;;;;;;10.50;3.63;;;25.30;75.20;;;;;;5092455;28;20448;-49
2022/05/11 13:21:37;;;;;;;15.13;3.70;;;25.30;76.20;;;;;;5092206;28;20928;-46
2022/05/11 13:24:06;;;;;;;3.37;2.80;;;25.20;75.40;;;;;;5092140;28;20443;-50
2022/05/11 13:26:37;;;;;;;52.57;14.83;;;25.20;74.70;;;;;;5092239;28;20485;-47
2022/05/11 13:29:18;;;;;;;40.53;14.30;;;25.20;78.30;;;;;;5091145;28;20820;-46
2022/05/11 13:31:46;;;;;;;106.87;30.10;;;25.40;74.70;;;;;;5092348;28;20766;-47
2022/05/11 13:34:30;;;;;;;53.83;20.13;;;25.40;75.10;;;;;;5092581;28;20447;-44
2022/05/11 13:36:59;;;;;;;13.50;4.00;;;25.30;80.80;;;;;;5091835;28;20477;-47
2022/05/11 13:39:30;;;;;;;6.37;3.27;;;25.20;72.90;;;;;;5092034;28;20492;-47
2022/05/11 13:42:01;;;;;;;15.53;6.40;;;25.20;73.90;;;;;;5092059;28;20456;-50
2022/05/11 13:44:35;;;;;;;26.60;9.43;;;25.30;73.80;;;;;;5092177;28;20496;-46
2022/05/11 13:50:01;;;;;;;37.53;13.73;;;25.60;75.30;;;;;;5048887;28;20421;-46